Ride Results

Upper Corindi (12-07-2014)
Ride distance: 80.0 km

Outcomes - Upper Corindi (12-07-2014)
Division No. of Entries Retired / DNE Completed Withdrawn Ineligible V/O Percentage Completed
HW 9 - 8 1 - - 88.89%
MW 5 - 4 - - 1 80.00%
LW 8 - 8 - - - 100.00%
JN 2 - 2 - - - 100.00%
Totals 24 - 22 1 - 1 91.67%
Results - Upper Corindi (12-07-2014)
No. Rider Horse Place Time Leg Speeds Total
Km/Hr
H/R bpm
Heavyweight
124 Matthew Gadsby Annordean Balin 1 5:09:00 15.8, 15.1 15.53 35, 47, 52 (Avg:49)
114 Greg Lyon Chingford Just Dreaming 2 (BC) 5:11:00 16.9, 14.2 15.43 29, 43, 55 (Avg:49)
113 Tad Cossins Wollumbin Elle 3 7:34:00 12.6, 9.0 10.57 32, 39, 41 (Avg:40)
122 Phil Coleman Rainbows Reach Snowfyre 4 7:50:00 11.5, 9.1 10.21 41, 47, 51 (Avg:49)
100 Steve Broadbent Glendhu Moonshine 5 7:55:00 12.1, 8.6 10.11 35, 44, 45 (Avg:44)
106 Bruce Moore Brookleigh Air Jordan 5 7:55:00 10.7, 9.5 10.11 39, 40, 47 (Avg:43)
109 Tangil Kinch Kim-Dande Shatahli 7 8:00:00 10.5, 9.4 10.00 32, 39, 40 (Avg:39)
101 Tami Parnell Churinga Firestorm 8 8:50:00 10.5, 7.9 9.06 37, 45, 48 (Avg:46)
118 Allan Caslick A'Landell Soul Withdrawn L1 0:00:00 - - 43, 38 (Avg:38)
Middleweight
126 Marion Lengronne Kalkadoon Vienna 1 (BC) 5:06:00 15.8, 15.4 15.69 33, 42, 49 (Avg:45)
112 Narelle Childs Halo Kazaam 2 6:11:00 14.5, 11.6 12.94 36, 40, 48 (Avg:44)
105 Helen Moore Brookleigh Apple Jack 3 7:55:00 10.7, 9.5 10.11 37, 40, 40 (Avg:40)
103 Tracey Hutchinson Woodbourne Granite 4 8:50:00 10.5, 7.9 9.06 31, 35, 43 (Avg:39)
123 Sonya Ruprecht Alex-Ville God Be Gift Lame L1 0:00:00 12.1 - 33, 44 (Avg:44)
Lightweight
110 Annette Chamberlain Annordean Lady Lilly 1 5:09:00 15.8, 15.1 15.53 40, 48, 52 (Avg:50)
111 Racheal Townsend Chingford Blaze Away 2 (BC) 5:11:00 16.9, 14.2 15.43 28, 39, 41 (Avg:40)
107 Clare Fleming Picnic Park Desert Dancer 3 5:23:00 16.1, 13.7 14.86 41, 48, 50 (Avg:49)
108 Caroline Windle Sarina Rosetta 4 6:11:00 14.5, 11.6 12.94 30, 44, 51 (Avg:47)
115 Pip Lillyman Zenith Park Shiloh 5 7:34:00 12.0, 9.4 10.57 31, 40, 46 (Avg:43)
102 Libby Jones Beau Val Feodora 6 7:50:00 11.3, 9.3 10.21 35, 38, 48 (Avg:43)
121 Ros Ryan Rainbows Reach Scout 6 7:50:00 11.5, 9.1 10.21 28, 37, 46 (Avg:41)
116 Shannen Thorsby A'Landell Charlie 8 8:05:00 10.5, 9.3 9.90 31, 38, 51 (Avg:44)
Junior
125 Tahlia Franke Aphrodite Malakia 1 (BC) 5:06:00 15.8, 15.4 15.69 37, 41, 44 (Avg:42)
120 Isabel Foster Sienna Kaptivating 2 8:05:00 10.5, 9.3 9.90 35, 40, 47 (Avg:43)